Time,TemperatureF,DewpointF,PressureIn,WindDirection,WindDirectionDegrees,WindSpeedMPH,WindSpeedGustMPH,Humidity,HourlyPrecipIn,Conditions,Clouds,dailyrainin,SoftwareType,DateUTC
2013-04-04 00:00:00,44.0,28.4,30.22,West,270,0.0,15.0,54,0.00,,,-99.99,Weather View 32 v60,2013-04-04 05:00:00,
2013-04-04 00:11:00,44.0,28.4,30.22,West,270,0.0,15.0,54,0.00,,,-99.99,Weather View 32 v60,2013-04-04 05:11:00,
2013-04-04 00:30:00,44.0,28.4,30.22,SW,225,4.0,15.0,54,0.00,,,-99.99,Weather View 32 v60,2013-04-04 05:30:00,
2013-04-04 00:45:00,43.0,27.0,30.22,WSW,247,2.0,13.0,53,0.00,,,-99.99,Weather View 32 v60,2013-04-04 05:45:00,
2013-04-04 01:00:00,43.0,27.5,30.22,WSW,247,1.0,13.0,54,0.00,,,-99.99,Weather View 32 v60,2013-04-04 06:00:00,
2013-04-04 01:12:00,43.0,27.5,30.22,WSW,247,1.0,13.0,54,0.00,,,-99.99,Weather View 32 v60,2013-04-04 06:12:00,
2013-04-04 01:30:00,42.0,27.4,30.23,WSW,247,1.0,11.0,56,0.00,,,-99.99,Weather View 32 v60,2013-04-04 06:30:00,
2013-04-04 01:45:00,42.0,27.0,30.23,WSW,247,2.0,11.0,55,0.00,,,-99.99,Weather View 32 v60,2013-04-04 06:45:00,
2013-04-04 02:00:00,41.0,26.9,30.23,SW,225,3.0,11.0,57,0.00,,,-99.99,Weather View 32 v60,2013-04-04 07:00:00,
2013-04-04 02:13:00,41.0,26.9,30.23,SW,225,3.0,11.0,57,0.00,,,-99.99,Weather View 32 v60,2013-04-04 07:13:00,
2013-04-04 02:30:00,41.0,26.9,30.24,WSW,247,1.0,10.0,57,0.00,,,-99.99,Weather View 32 v60,2013-04-04 07:30:00,
2013-04-04 02:45:00,40.0,27.2,30.23,SW,225,0.0,10.0,60,0.00,,,-99.99,Weather View 32 v60,2013-04-04 07:45:00,
2013-04-04 03:00:00,39.0,26.7,30.24,WSW,247,0.0,9.0,61,0.00,,,-99.99,Weather View 32 v60,2013-04-04 08:00:00,
2013-04-04 03:13:00,39.0,26.7,30.24,WSW,247,0.0,9.0,61,0.00,,,-99.99,Weather View 32 v60,2013-04-04 08:13:00,
2013-04-04 03:30:00,39.0,27.5,30.23,West,270,0.0,9.0,63,0.00,,,-99.99,Weather View 32 v60,2013-04-04 08:30:00,
2013-04-04 03:45:00,39.0,27.8,30.23,SW,225,0.0,7.0,64,0.00,,,-99.99,Weather View 32 v60,2013-04-04 08:45:00,
2013-04-04 04:00:00,38.0,27.6,30.23,SW,225,0.0,7.0,66,0.00,,,-99.99,Weather View 32 v60,2013-04-04 09:00:00,
2013-04-04 04:14:00,38.0,27.6,30.23,SW,225,0.0,7.0,66,0.00,,,-99.99,Weather View 32 v60,2013-04-04 09:14:00,
2013-04-04 04:30:00,37.0,28.5,30.23,WSW,247,0.0,4.0,71,0.00,,,-99.99,Weather View 32 v60,2013-04-04 09:30:00,
2013-04-04 04:45:00,37.0,28.8,30.23,SW,225,0.0,5.0,72,0.00,,,-99.99,Weather View 32 v60,2013-04-04 09:45:00,
2013-04-04 05:00:00,37.0,29.1,30.23,SW,225,0.0,7.0,73,0.00,,,-99.99,Weather View 32 v60,2013-04-04 10:00:00,
2013-04-04 05:14:00,37.0,29.1,30.23,SW,225,0.0,7.0,73,0.00,,,-99.99,Weather View 32 v60,2013-04-04 10:14:00,
2013-04-04 05:30:00,37.0,30.5,30.22,SW,225,0.0,7.0,77,0.00,,,-99.99,Weather View 32 v60,2013-04-04 10:30:00,
2013-04-04 05:45:00,36.0,29.5,30.22,WSW,247,0.0,7.0,77,0.00,,,-99.99,Weather View 32 v60,2013-04-04 10:45:00,
2013-04-04 06:00:00,36.0,30.1,30.22,SW,225,0.0,6.0,79,0.00,,,-99.99,Weather View 32 v60,2013-04-04 11:00:00,
2013-04-04 06:15:00,36.0,30.1,30.22,SW,225,0.0,6.0,79,0.00,,,-99.99,Weather View 32 v60,2013-04-04 11:15:00,
2013-04-04 06:30:00,36.0,31.0,30.22,SW,225,0.0,3.0,82,0.00,,,-99.99,Weather View 32 v60,2013-04-04 11:30:00,
2013-04-04 06:45:00,36.0,31.0,30.22,SW,225,0.0,7.0,82,0.00,,,-99.99,Weather View 32 v60,2013-04-04 11:45:00,
2013-04-04 07:00:00,36.0,31.0,30.22,WSW,247,0.0,7.0,82,0.00,,,-99.99,Weather View 32 v60,2013-04-04 12:00:00,
2013-04-04 07:15:00,36.0,31.0,30.22,West,270,0.0,7.0,82,0.00,,,-99.99,Weather View 32 v60,2013-04-04 12:15:00,
2013-04-04 07:30:00,37.0,31.7,30.22,SW,225,0.0,7.0,81,0.00,,,-99.99,Weather View 32 v60,2013-04-04 12:30:00,
2013-04-04 07:45:00,38.0,31.7,30.22,WSW,247,0.0,7.0,78,0.00,,,-99.99,Weather View 32 v60,2013-04-04 12:45:00,
2013-04-04 08:00:00,38.0,31.7,30.22,West,270,1.0,7.0,78,0.00,,,-99.99,Weather View 32 v60,2013-04-04 13:00:00,
2013-04-04 08:15:00,38.0,31.7,30.22,SSW,202,0.0,6.0,78,0.00,,,-99.99,Weather View 32 v60,2013-04-04 13:15:00,
2013-04-04 08:30:00,40.0,32.7,30.21,SSW,202,3.0,9.0,75,0.00,,,-99.99,Weather View 32 v60,2013-04-04 13:30:00,
2013-04-04 08:45:00,42.0,33.3,30.20,West,270,0.0,9.0,71,0.00,,,-99.99,Weather View 32 v60,2013-04-04 13:45:00,
2013-04-04 09:00:00,42.0,32.9,30.21,West,270,2.0,9.0,70,0.00,,,-99.99,Weather View 32 v60,2013-04-04 14:00:00,
2013-04-04 09:15:00,43.0,33.5,30.21,WNW,292,8.0,9.0,69,0.00,,,-99.99,Weather View 32 v60,2013-04-04 14:15:00,
2013-04-04 09:30:00,43.0,33.9,30.20,West,270,0.0,8.0,70,0.00,,,-99.99,Weather View 32 v60,2013-04-04 14:30:00,
2013-04-04 09:45:00,43.0,34.2,30.19,WSW,247,0.0,8.0,71,0.00,,,-99.99,Weather View 32 v60,2013-04-04 14:45:00,
2013-04-04 10:00:00,44.0,34.5,30.19,West,270,0.0,8.0,69,0.00,,,-99.99,Weather View 32 v60,2013-04-04 15:00:00,
2013-04-04 10:15:00,46.0,34.5,30.19,WNW,292,4.0,8.0,64,0.00,,,-99.99,Weather View 32 v60,2013-04-04 15:15:00,
2013-04-04 10:30:00,46.0,34.5,30.19,WNW,292,3.0,10.0,64,0.00,,,-99.99,Weather View 32 v60,2013-04-04 15:30:00,
2013-04-04 10:45:00,48.0,35.6,30.18,NNW,337,0.0,10.0,62,0.00,,,-99.99,Weather View 32 v60,2013-04-04 15:45:00,
2013-04-04 11:00:00,52.0,35.8,30.18,NE,45,4.0,10.0,54,0.00,,,-99.99,Weather View 32 v60,2013-04-04 16:00:00,
2013-04-04 11:15:00,51.0,35.4,30.19,North,360,0.0,10.0,55,0.00,,,-99.99,Weather View 32 v60,2013-04-04 16:15:00,
2013-04-04 11:30:00,52.0,35.8,30.18,ENE,67,1.0,10.0,54,0.00,,,-99.99,Weather View 32 v60,2013-04-04 16:30:00,
2013-04-04 11:45:00,53.0,36.3,30.18,North,360,6.0,10.0,53,0.00,,,-99.99,Weather View 32 v60,2013-04-04 16:45:00,
2013-04-04 12:00:00,56.0,38.1,30.17,ENE,67,3.0,10.0,51,0.00,,,-99.99,Weather View 32 v60,2013-04-04 17:00:00,
2013-04-04 12:15:00,55.0,37.2,30.18,East,90,6.0,13.0,51,0.00,,,-99.99,Weather View 32 v60,2013-04-04 17:15:00,
2013-04-04 12:30:00,57.0,38.5,30.16,East,90,8.0,13.0,50,0.00,,,-99.99,Weather View 32 v60,2013-04-04 17:30:00,
2013-04-04 12:45:00,57.0,36.4,30.16,NNW,337,4.0,13.0,46,0.00,,,-99.99,Weather View 32 v60,2013-04-04 17:45:00,
2013-04-04 13:00:00,56.0,34.9,30.17,ENE,67,2.0,17.0,45,0.00,,,-99.99,Weather View 32 v60,2013-04-04 18:00:00,
2013-04-04 13:15:00,56.0,32.6,30.17,East,90,4.0,17.0,41,0.00,,,-99.99,Weather View 32 v60,2013-04-04 18:15:00,
2013-04-04 13:30:00,57.0,33.5,30.16,NE,45,3.0,17.0,41,0.00,,,-99.99,Weather View 32 v60,2013-04-04 18:30:00,
2013-04-04 13:45:00,56.0,29.4,30.16,ENE,67,9.0,17.0,36,0.00,,,-99.99,Weather View 32 v60,2013-04-04 18:45:00,
2013-04-04 14:00:00,58.0,29.7,30.15,ENE,67,5.0,17.0,34,0.00,,,-99.99,Weather View 32 v60,2013-04-04 19:00:00,
2013-04-04 14:15:00,58.0,30.4,30.15,NE,45,10.0,17.0,35,0.00,,,-99.99,Weather View 32 v60,2013-04-04 19:15:00,
2013-04-04 14:30:00,59.0,28.3,30.15,East,90,11.0,17.0,31,0.00,,,-99.99,Weather View 32 v60,2013-04-04 19:30:00,
2013-04-04 14:45:00,60.0,30.0,30.13,ENE,67,7.0,17.0,32,0.00,,,-99.99,Weather View 32 v60,2013-04-04 19:45:00,
2013-04-04 15:00:00,60.0,25.9,30.13,ENE,67,6.0,14.0,27,0.00,,,-99.99,Weather View 32 v60,2013-04-04 20:00:00,
2013-04-04 15:15:00,61.0,23.9,30.12,NE,45,8.0,14.0,24,0.00,,,-99.99,Weather View 32 v60,2013-04-04 20:15:00,
2013-04-04 15:30:00,61.0,25.8,30.12,NE,45,7.0,14.0,26,0.00,,,-99.99,Weather View 32 v60,2013-04-04 20:30:00,
2013-04-04 15:45:00,60.0,24.9,30.12,NNE,22,7.0,17.0,26,0.00,,,-99.99,Weather View 32 v60,2013-04-04 20:45:00,
2013-04-04 16:00:00,60.0,23.0,30.12,ENE,67,6.0,17.0,24,0.00,,,-99.99,Weather View 32 v60,2013-04-04 21:00:00,
2013-04-04 16:15:00,60.0,22.0,30.12,NE,45,4.0,17.0,23,0.00,,,-99.99,Weather View 32 v60,2013-04-04 21:15:00,
2013-04-04 16:20:00,60.0,22.0,30.12,NE,45,4.0,17.0,23,0.00,,,-99.99,Weather View 32 v60,2013-04-04 21:20:00,
2013-04-04 16:30:00,62.0,24.7,30.11,ENE,67,12.0,17.0,24,0.00,,,-99.99,Weather View 32 v60,2013-04-04 21:30:00,
2013-04-04 16:45:00,60.0,24.9,30.12,ENE,67,7.0,15.0,26,0.00,,,-99.99,Weather View 32 v60,2013-04-04 21:45:00,
2013-04-04 17:00:00,59.0,25.9,30.13,NE,45,9.0,15.0,28,0.00,,,-99.99,Weather View 32 v60,2013-04-04 22:00:00,
2013-04-04 17:15:00,58.0,25.0,30.12,ENE,67,10.0,15.0,28,0.00,,,-99.99,Weather View 32 v60,2013-04-04 22:15:00,
2013-04-04 17:21:00,58.0,25.0,30.12,ENE,67,10.0,15.0,28,0.00,,,-99.99,Weather View 32 v60,2013-04-04 22:21:00,
2013-04-04 17:30:00,59.0,27.5,30.14,ENE,67,3.0,15.0,30,0.00,,,-99.99,Weather View 32 v60,2013-04-04 22:30:00,
2013-04-04 17:45:00,57.0,24.2,30.14,ENE,67,8.0,14.0,28,0.00,,,-99.99,Weather View 32 v60,2013-04-04 22:45:00,
2013-04-04 18:00:00,56.0,27.2,30.15,ENE,67,7.0,14.0,33,0.00,,,-99.99,Weather View 32 v60,2013-04-04 23:00:00,
2013-04-04 18:15:00,56.0,25.7,30.15,East,90,6.0,14.0,31,0.00,,,-99.99,Weather View 32 v60,2013-04-04 23:15:00,
2013-04-04 18:21:00,56.0,25.7,30.15,East,90,6.0,14.0,31,0.00,,,-99.99,Weather View 32 v60,2013-04-04 23:21:00,
2013-04-04 18:30:00,55.0,26.4,30.15,East,90,4.0,14.0,33,0.00,,,-99.99,Weather View 32 v60,2013-04-04 23:30:00,
2013-04-04 18:45:00,55.0,26.4,30.16,NE,45,5.0,14.0,33,0.00,,,-99.99,Weather View 32 v60,2013-04-04 23:45:00,
2013-04-04 19:00:00,54.0,27.6,30.16,NE,45,7.0,13.0,36,0.00,,,-99.99,Weather View 32 v60,2013-04-05 00:00:00,
2013-04-04 19:15:00,54.0,29.6,30.16,NE,45,5.0,12.0,39,0.00,,,-99.99,Weather View 32 v60,2013-04-05 00:15:00,
2013-04-04 19:22:00,54.0,29.6,30.16,NE,45,5.0,12.0,39,0.00,,,-99.99,Weather View 32 v60,2013-04-05 00:22:00,
2013-04-04 19:30:00,53.0,29.3,30.16,East,90,1.0,9.0,40,0.00,,,-99.99,Weather View 32 v60,2013-04-05 00:30:00,
2013-04-04 19:45:00,52.0,29.0,30.17,East,90,0.0,9.0,41,0.00,,,-99.99,Weather View 32 v60,2013-04-05 00:45:00,
2013-04-04 20:00:00,51.0,28.7,30.18,NE,45,4.0,9.0,42,0.00,,,-99.99,Weather View 32 v60,2013-04-05 01:00:00,
2013-04-04 20:15:00,50.0,29.5,30.18,ENE,67,1.0,8.0,45,0.00,,,-99.99,Weather View 32 v60,2013-04-05 01:15:00,
2013-04-04 20:22:00,50.0,29.5,30.18,ENE,67,1.0,8.0,45,0.00,,,-99.99,Weather View 32 v60,2013-04-05 01:22:00,
2013-04-04 20:30:00,50.0,30.0,30.18,ENE,67,0.0,5.0,46,0.00,,,-99.99,Weather View 32 v60,2013-04-05 01:30:00,
2013-04-04 20:45:00,49.0,29.6,30.19,ENE,67,1.0,4.0,47,0.00,,,-99.99,Weather View 32 v60,2013-04-05 01:45:00,
2013-04-04 21:00:00,48.0,30.2,30.20,East,90,2.0,6.0,50,0.00,,,-99.99,Weather View 32 v60,2013-04-05 02:00:00,
2013-04-04 21:15:00,47.0,30.3,30.20,ENE,67,1.0,10.0,52,0.00,,,-99.99,Weather View 32 v60,2013-04-05 02:15:00,
2013-04-04 21:23:00,47.0,30.3,30.20,ENE,67,1.0,10.0,52,0.00,,,-99.99,Weather View 32 v60,2013-04-05 02:23:00,
2013-04-04 21:30:00,45.0,30.7,30.22,East,90,4.0,10.0,57,0.00,,,-99.99,Weather View 32 v60,2013-04-05 02:30:00,
2013-04-04 21:45:00,44.0,31.0,30.23,ENE,67,2.0,10.0,60,0.00,,,-99.99,Weather View 32 v60,2013-04-05 02:45:00,
2013-04-04 22:00:00,42.0,30.3,30.23,ENE,67,1.0,10.0,63,0.00,,,-99.99,Weather View 32 v60,2013-04-05 03:00:00,
2013-04-04 22:15:00,42.0,31.1,30.24,ENE,67,5.0,12.0,65,0.00,,,-99.99,Weather View 32 v60,2013-04-05 03:15:00,
2013-04-04 22:23:00,42.0,31.1,30.24,ENE,67,5.0,12.0,65,0.00,,,-99.99,Weather View 32 v60,2013-04-05 03:23:00,
2013-04-04 22:30:00,41.0,30.5,30.24,ENE,67,4.0,12.0,66,0.00,,,-99.99,Weather View 32 v60,2013-04-05 03:30:00,
2013-04-04 22:45:00,41.0,30.9,30.24,ENE,67,1.0,12.0,67,0.00,,,-99.99,Weather View 32 v60,2013-04-05 03:45:00,
2013-04-04 23:00:00,40.0,31.0,30.25,ENE,67,3.0,12.0,70,0.00,,,-99.99,Weather View 32 v60,2013-04-05 04:00:00,
2013-04-04 23:15:00,39.0,30.4,30.25,East,90,7.0,12.0,71,0.00,,,-99.99,Weather View 32 v60,2013-04-05 04:15:00,
2013-04-04 23:24:00,39.0,30.4,30.25,East,90,7.0,12.0,71,0.00,,,-99.99,Weather View 32 v60,2013-04-05 04:24:00,
2013-04-04 23:30:00,38.0,29.8,30.26,ENE,67,0.0,12.0,72,0.00,,,-99.99,Weather View 32 v60,2013-04-05 04:30:00,
2013-04-04 23:45:00,37.0,30.1,30.27,ENE,67,1.0,12.0,76,0.00,,,-99.99,Weather View 32 v60,2013-04-05 04:45:00,